Time;durP1;ratioP1;P1;durP2;ratioP2;P2;SDS_P1;SDS_P2;PMS_P1;PMS_P2;Temp;Humidity;BMP_temperature;BMP_pressure;BME280_temperature;BME280_humidity;BME280_pressure;Samples;Min_cycle;Max_cycle;Signal;HPM_P1;HPM_P2
2023/10/15 00:12:23;;;;;;;6.60;1.90;;;;;;;9.97;88.83;99546.69;670919;1276;139140;-80
2023/10/15 00:27:29;;;;;;;7.90;2.40;;;;;;;9.93;87.96;99552.46;670398;1264;139242;-80
2023/10/15 00:42:32;;;;;;;6.30;2.20;;;;;;;9.67;88.59;99557.92;669448;1266;139323;-80
2023/10/15 00:57:41;;;;;;;7.40;1.80;;;;;;;9.43;89.70;99553.20;674185;1263;138887;-80
2023/10/15 01:12:45;;;;;;;4.20;1.90;;;;;;;9.24;91.09;99553.33;674751;1274;139008;-81
2023/10/15 01:27:48;;;;;;;8.10;2.30;;;;;;;9.12;91.68;99563.77;670793;1262;138958;-80
2023/10/15 01:42:54;;;;;;;3.20;1.50;;;;;;;8.97;93.21;99564.69;670110;1265;139195;-80
2023/10/15 01:58:00;;;;;;;8.30;1.90;;;;;;;8.92;93.36;99568.98;672610;1275;139206;-80
2023/10/15 02:13:04;;;;;;;6.90;1.90;;;;;;;8.89;93.84;99577.09;668765;1265;140393;-80
2023/10/15 02:28:09;;;;;;;9.60;1.60;;;;;;;8.86;93.95;99565.30;672244;1277;139326;-80
2023/10/15 02:43:13;;;;;;;8.50;2.00;;;;;;;8.76;94.50;99566.92;671918;1264;138829;-81
2023/10/15 02:58:17;;;;;;;8.50;2.30;;;;;;;8.69;96.21;99568.27;670669;1266;139096;-80
2023/10/15 03:13:20;;;;;;;3.40;1.60;;;;;;;8.74;95.56;99564.85;670560;1264;185836;-80
2023/10/15 03:28:26;;;;;;;6.50;1.70;;;;;;;8.63;96.09;99563.55;672071;1276;140024;-80
2023/10/15 03:43:34;;;;;;;7.60;2.20;;;;;;;8.65;95.85;99565.14;673865;1259;139615;-79
2023/10/15 03:58:37;;;;;;;7.70;1.70;;;;;;;8.58;95.81;99569.80;669882;1265;139429;-80
2023/10/15 04:13:40;;;;;;;4.40;2.10;;;;;;;8.48;96.14;99564.55;672399;1261;139020;-79
2023/10/15 04:28:43;;;;;;;4.30;1.60;;;;;;;8.51;95.73;99573.20;670331;1263;139465;-80
2023/10/15 04:43:47;;;;;;;8.30;2.30;;;;;;;8.47;96.22;99563.95;670523;1264;139414;-80
2023/10/15 04:58:50;;;;;;;6.50;1.70;;;;;;;8.35;96.48;99571.64;672242;1264;139376;-80
2023/10/15 05:13:54;;;;;;;8.40;2.40;;;;;;;8.42;96.79;99584.41;670793;1260;139734;-81
2023/10/15 05:28:59;;;;;;;2.90;1.90;;;;;;;8.62;96.30;99594.51;675169;1265;138782;-82
2023/10/15 05:44:03;;;;;;;8.00;2.40;;;;;;;8.74;94.56;99593.09;675516;1262;139751;-82
2023/10/15 05:59:07;;;;;;;9.40;2.10;;;;;;;8.85;92.91;99606.08;674931;1264;139030;-82
2023/10/15 06:14:11;;;;;;;6.60;2.30;;;;;;;9.04;90.38;99624.52;675675;1262;139701;-83
2023/10/15 06:29:15;;;;;;;4.60;2.10;;;;;;;9.19;88.03;99621.08;673989;1260;138924;-83
2023/10/15 06:44:19;;;;;;;9.70;3.00;;;;;;;9.62;86.25;99616.20;674708;1264;139172;-82
2023/10/15 06:59:22;;;;;;;7.20;2.30;;;;;;;10.04;82.32;99631.05;672950;1262;138869;-82
2023/10/15 07:14:26;;;;;;;5.10;1.30;;;;;;;10.00;82.12;99664.77;671334;1259;138550;-81
2023/10/15 07:29:30;;;;;;;30.30;19.40;;;;;;;10.03;81.36;99684.30;672835;1259;138225;-83
2023/10/15 07:44:33;;;;;;;15.40;13.10;;;;;;;12.00;75.00;99689.66;671065;1266;138764;-80
2023/10/15 07:59:37;;;;;;;22.10;18.80;;;;;;;12.11;69.96;99701.15;669487;1264;138546;-81
2023/10/15 08:14:41;;;;;;;20.10;10.90;;;;;;;11.40;73.18;99711.59;669511;1267;138305;-80
2023/10/15 08:29:44;;;;;;;7.50;2.20;;;;;;;11.83;71.34;99707.36;669125;1267;139524;-80
2023/10/15 08:44:50;;;;;;;5.40;4.80;;;;;;;12.82;68.29;99708.05;673907;1263;138888;-81
2023/10/15 08:59:57;;;;;;;7.90;4.10;;;;;;;13.61;65.13;99716.27;669875;1265;138522;-82
2023/10/15 09:15:01;;;;;;;7.50;5.60;;;;;;;12.17;67.22;99723.24;670445;1265;139138;-80
2023/10/15 09:30:18;;;;;;;12.80;9.10;;;;;;;11.94;69.35;99741.17;669935;1262;138065;-82
2023/10/15 09:45:26;;;;;;;12.80;9.80;;;;;;;11.70;69.67;99748.52;672989;1277;137934;-83
2023/10/15 10:11:01;;;;;;;11.50;9.80;;;;;;;14.64;62.01;99762.89;656917;1298;544882;-81
2023/10/15 10:26:12;;;;;;;16.70;9.90;;;;;;;12.74;64.08;99762.86;673507;1275;138646;-82
2023/10/15 10:41:16;;;;;;;7.50;3.10;;;;;;;13.20;65.10;99755.66;668719;1272;137663;-80
2023/10/15 10:56:25;;;;;;;16.70;8.20;;;;;;;14.27;60.73;99751.75;669723;1268;137723;-82
2023/10/15 11:11:29;;;;;;;11.20;10.10;;;;;;;13.88;60.37;99746.58;669325;1268;138649;-80
2023/10/15 11:26:33;;;;;;;17.60;8.20;;;;;;;13.42;60.47;99747.94;669034;1269;137959;-80
2023/10/15 11:41:38;;;;;;;10.50;4.30;;;;;;;12.69;61.75;99733.85;669354;1268;138058;-80
2023/10/15 11:56:48;;;;;;;12.00;2.40;;;;;;;13.07;61.43;99734.17;670046;1263;137873;-80
2023/10/15 12:11:52;;;;;;;15.30;3.90;;;;;;;12.82;61.47;99732.09;670863;1267;137596;-81
2023/10/15 12:26:55;;;;;;;15.60;13.20;;;;;;;13.24;59.93;99734.65;668715;1270;137664;-82
2023/10/15 12:41:59;;;;;;;18.10;12.50;;;;;;;13.05;59.73;99732.16;670841;1261;140138;-80
2023/10/15 12:57:04;;;;;;;23.80;15.00;;;;;;;12.13;61.67;99732.10;668697;1265;139376;-80
2023/10/15 13:12:09;;;;;;;24.90;7.50;;;;;;;12.77;60.83;99722.58;670708;1263;139154;-80
2023/10/15 13:27:12;;;;;;;23.80;15.20;;;;;;;12.48;61.66;99715.06;672226;1264;138670;-81
2023/10/15 13:42:16;;;;;;;17.40;7.80;;;;;;;12.67;60.60;99712.04;670696;1266;138246;-80
2023/10/15 13:57:20;;;;;;;29.30;7.80;;;;;;;12.59;60.48;99714.33;672757;1264;138123;-81
2023/10/15 14:12:25;;;;;;;20.60;7.30;;;;;;;12.47;59.95;99715.04;670493;1264;139945;-80
2023/10/15 14:27:28;;;;;;;20.90;8.00;;;;;;;12.56;60.06;99730.77;669626;1265;139584;-80
2023/10/15 14:42:32;;;;;;;20.30;6.60;;;;;;;12.13;60.85;99734.55;668298;1268;138637;-80
2023/10/15 14:57:37;;;;;;;14.00;5.60;;;;;;;11.86;61.15;99739.36;669033;1263;138542;-80
2023/10/15 15:12:40;;;;;;;13.10;5.10;;;;;;;11.77;60.94;99744.50;669934;1268;139060;-81
2023/10/15 15:27:44;;;;;;;124.80;109.10;;;;;;;11.49;61.20;99741.48;670504;1264;138519;-80
2023/10/15 15:42:47;;;;;;;14.70;6.20;;;;;;;11.28;62.48;99747.77;670110;1263;161117;-81
2023/10/15 15:57:56;;;;;;;;;;;;;;;10.75;63.38;99748.73;669677;1272;137917;-81
2023/10/15 16:13:00;;;;;;;11.00;4.80;;;;;;;10.42;63.96;99758.08;668769;1264;125743;-81
2023/10/15 16:28:04;;;;;;;24.40;13.90;;;;;;;10.11;64.92;99776.45;669973;1263;138931;-81
2023/10/15 16:43:09;;;;;;;105.00;52.30;;;;;;;9.95;65.67;99780.10;670145;1260;138276;-81
2023/10/15 16:58:13;;;;;;;18.20;10.50;;;;;;;9.85;66.11;99786.40;669836;1263;139832;-81
2023/10/15 17:13:16;;;;;;;20.30;8.00;;;;;;;9.77;66.52;99786.11;669058;1273;140252;-80
2023/10/15 17:28:21;;;;;;;19.70;6.70;;;;;;;9.76;66.49;99785.81;669139;1263;138466;-81
2023/10/15 17:43:25;;;;;;;12.00;3.60;;;;;;;9.84;66.33;99784.41;668901;1258;139782;-81
2023/10/15 17:58:30;;;;;;;16.60;5.60;;;;;;;9.69;66.44;99779.84;669766;1259;138262;-80
2023/10/15 18:13:34;;;;;;;33.40;9.20;;;;;;;9.84;65.89;99783.34;668016;1264;139550;-81
2023/10/15 18:28:37;;;;;;;15.50;5.20;;;;;;;9.78;66.03;99792.61;668550;1261;139092;-81
2023/10/15 18:43:41;;;;;;;29.50;9.20;;;;;;;9.53;66.40;99788.11;668368;1264;139359;-81
2023/10/15 18:58:44;;;;;;;11.50;3.50;;;;;;;9.28;67.45;99798.45;668249;1263;139396;-81
2023/10/15 19:13:48;;;;;;;15.00;6.30;;;;;;;9.11;68.41;99799.59;668475;1264;138398;-81
2023/10/15 19:28:52;;;;;;;14.70;3.00;;;;;;;9.51;68.79;99795.77;668211;1265;139511;-81
2023/10/15 19:43:55;;;;;;;11.30;3.30;;;;;;;9.44;68.90;99805.75;668653;1264;139328;-81
2023/10/15 19:58:59;;;;;;;13.10;4.50;;;;;;;9.35;69.98;99816.80;667970;1259;140043;-81
2023/10/15 20:14:03;;;;;;;9.70;3.50;;;;;;;9.53;70.26;99817.42;667990;1264;138763;-79
2023/10/15 20:29:06;;;;;;;7.70;2.80;;;;;;;9.49;71.79;99807.36;669718;1263;138591;-80
2023/10/15 20:44:10;;;;;;;16.50;2.90;;;;;;;9.35;73.55;99814.67;667964;1264;138293;-80
2023/10/15 20:59:13;;;;;;;13.20;3.40;;;;;;;9.20;75.08;99825.66;668089;1261;139171;-80
2023/10/15 21:14:18;;;;;;;11.00;4.00;;;;;;;8.97;77.42;99832.19;668244;1269;139452;-80
2023/10/15 21:29:22;;;;;;;11.60;2.90;;;;;;;9.02;78.81;99837.67;670155;1264;138525;-80
2023/10/15 21:44:25;;;;;;;7.00;2.50;;;;;;;9.02;80.38;99832.33;668084;1264;138770;-80
2023/10/15 21:59:29;;;;;;;6.80;2.50;;;;;;;9.12;80.86;99826.48;668882;1275;138615;-81
2023/10/15 22:14:32;;;;;;;6.40;2.10;;;;;;;9.19;80.53;99822.73;668384;1261;148915;-80
2023/10/15 22:29:36;;;;;;;8.70;2.40;;;;;;;9.18;81.45;99823.33;669069;1264;138477;-81
2023/10/15 22:44:46;;;;;;;6.40;2.50;;;;;;;9.09;82.51;99828.91;673812;1264;138333;-79
2023/10/15 22:59:50;;;;;;;5.40;2.00;;;;;;;8.90;84.10;99835.10;668128;1264;138787;-79
2023/10/15 23:14:53;;;;;;;2.10;1.40;;;;;;;8.68;84.83;99849.78;668038;1264;138369;-80
2023/10/15 23:29:57;;;;;;;3.70;1.60;;;;;;;8.65;85.56;99858.21;667539;1264;138252;-80
2023/10/15 23:45:07;;;;;;;6.10;1.50;;;;;;;8.55;87.59;99866.23;667707;1264;138451;-80
